createdAt,value
2022-08-30T00:00:08.052Z,11.86
2022-08-30T00:02:36.137Z,12.01
2022-08-30T00:05:04.839Z,11.74
2022-08-30T00:07:32.879Z,11.68
2022-08-30T00:10:00.670Z,11.58
2022-08-30T00:12:30.298Z,11.44
2022-08-30T00:14:58.103Z,11.40
2022-08-30T00:17:26.038Z,11.35
2022-08-30T00:19:53.527Z,11.31
2022-08-30T00:22:20.995Z,11.24
2022-08-30T00:24:49.374Z,11.26
2022-08-30T00:27:16.891Z,11.13
2022-08-30T00:29:46.722Z,11.15
2022-08-30T00:32:16.117Z,11.18
2022-08-30T00:34:43.627Z,11.06
2022-08-30T00:37:11.104Z,11.04
2022-08-30T00:39:38.568Z,11.10
2022-08-30T00:42:06.285Z,10.90
2022-08-30T00:44:33.882Z,10.79
2022-08-30T00:47:02.714Z,10.80
2022-08-30T00:49:30.955Z,10.79
2022-08-30T00:51:59.454Z,10.84
2022-08-30T00:54:28.338Z,10.84
2022-08-30T00:56:56.237Z,10.81
2022-08-30T00:59:24.923Z,10.79
2022-08-30T01:01:53.763Z,10.67
2022-08-30T01:04:24.984Z,10.69
2022-08-30T01:06:53.890Z,10.86
2022-08-30T01:09:22.770Z,10.78
2022-08-30T01:11:50.531Z,10.69
2022-08-30T01:14:18.449Z,10.73
2022-08-30T01:16:46.967Z,10.59
2022-08-30T01:19:30.384Z,10.38
2022-08-30T01:22:05.270Z,10.27
2022-08-30T01:24:34.547Z,10.21
2022-08-30T01:27:02.172Z,10.14
2022-08-30T01:29:30.180Z,10.16
2022-08-30T01:31:57.691Z,10.12
2022-08-30T01:34:25.520Z,10.03
2022-08-30T01:36:53.199Z,9.96
2022-08-30T01:39:20.950Z,10.00
2022-08-30T01:41:49.755Z,10.01
2022-08-30T01:44:17.427Z,9.95
2022-08-30T01:46:48.408Z,9.94
2022-08-30T01:49:27.300Z,9.98
2022-08-30T01:52:00.897Z,9.95
2022-08-30T01:54:36.924Z,9.91
2022-08-30T01:57:10.784Z,10.06
2022-08-30T01:59:39.616Z,10.02
2022-08-30T02:02:07.841Z,9.90
2022-08-30T02:04:36.645Z,9.73
2022-08-30T02:07:04.787Z,9.64
2022-08-30T02:09:32.345Z,9.60
2022-08-30T02:11:59.899Z,9.58
2022-08-30T02:14:33.599Z,9.60
2022-08-30T02:17:02.507Z,9.45
2022-08-30T02:19:30.379Z,9.31
2022-08-30T02:21:58.020Z,9.36
2022-08-30T02:24:25.548Z,9.50
2022-08-30T02:26:54.100Z,9.27
2022-08-30T02:29:22.095Z,9.27
2022-08-30T02:31:50.921Z,9.30
2022-08-30T02:34:18.736Z,9.26
2022-08-30T02:36:46.610Z,9.29
2022-08-30T02:39:15.508Z,9.27
2022-08-30T02:41:44.073Z,9.20
2022-08-30T02:44:12.496Z,9.25
2022-08-30T02:46:39.988Z,9.32
2022-08-30T02:49:30.336Z,9.27
2022-08-30T02:51:57.018Z,9.26
2022-08-30T02:54:24.489Z,9.27
2022-08-30T02:56:51.985Z,9.45
2022-08-30T02:59:19.604Z,9.51
2022-08-30T03:01:47.109Z,9.57
2022-08-30T03:04:15.955Z,9.61
2022-08-30T03:06:43.549Z,9.57
2022-08-30T03:09:11.034Z,9.42
2022-08-30T03:11:38.839Z,9.40
2022-08-30T03:14:06.280Z,9.31
2022-08-30T03:16:33.894Z,9.32
2022-08-30T03:19:01.394Z,9.45
2022-08-30T03:21:30.185Z,9.32
2022-08-30T03:23:57.688Z,9.33
2022-08-30T03:26:25.136Z,9.25
2022-08-30T03:28:53.103Z,9.13
2022-08-30T03:31:20.662Z,9.10
2022-08-30T03:33:48.145Z,9.07
2022-08-30T03:36:15.644Z,9.03
2022-08-30T03:38:44.452Z,9.01
2022-08-30T03:41:12.268Z,8.96
2022-08-30T03:43:40.579Z,8.91
2022-08-30T03:46:08.706Z,8.85
2022-08-30T03:48:36.731Z,8.87
2022-08-30T03:51:05.982Z,9.03
2022-08-30T03:53:33.760Z,9.13
2022-08-30T03:56:02.921Z,9.07
2022-08-30T03:58:30.469Z,9.17
2022-08-30T04:00:57.978Z,9.10
2022-08-30T04:03:25.798Z,8.96
2022-08-30T04:05:53.525Z,8.97
2022-08-30T04:08:21.399Z,8.95
2022-08-30T04:10:49.234Z,8.79
2022-08-30T04:13:19.045Z,8.84
2022-08-30T04:15:46.655Z,8.86
2022-08-30T04:18:14.173Z,8.84
2022-08-30T04:20:41.625Z,8.94
2022-08-30T04:23:09.359Z,9.07
2022-08-30T04:25:38.668Z,9.07
2022-08-30T04:28:06.936Z,9.04
2022-08-30T04:30:39.432Z,9.04
2022-08-30T04:33:07.360Z,8.88
2022-08-30T04:35:34.854Z,8.67
2022-08-30T04:38:03.345Z,8.65
2022-08-30T04:40:31.136Z,8.61
2022-08-30T04:42:59.307Z,8.59
2022-08-30T04:45:27.044Z,8.65
2022-08-30T04:47:57.186Z,8.67
2022-08-30T04:50:25.230Z,8.73
2022-08-30T04:52:52.770Z,8.62
2022-08-30T04:55:20.688Z,8.66
2022-08-30T04:57:48.599Z,8.60
2022-08-30T05:00:16.714Z,8.63
2022-08-30T05:02:44.316Z,8.65
2022-08-30T05:05:31.664Z,8.71
2022-08-30T05:07:59.257Z,8.83
2022-08-30T05:10:27.405Z,9.09
2022-08-30T05:12:55.579Z,9.06
2022-08-30T05:15:23.713Z,8.97
2022-08-30T05:17:51.527Z,8.98
2022-08-30T05:20:20.384Z,9.02
2022-08-30T05:22:53.538Z,9.03
2022-08-30T05:25:23.290Z,9.10
2022-08-30T05:27:50.807Z,9.34
2022-08-30T05:30:19.636Z,9.40
2022-08-30T05:32:47.201Z,9.54
2022-08-30T05:35:16.464Z,9.87
2022-08-30T05:37:45.787Z,10.00
2022-08-30T05:40:17.366Z,10.08
2022-08-30T05:42:46.524Z,10.16
2022-08-30T05:45:14.834Z,10.39
2022-08-30T05:47:42.601Z,10.54
2022-08-30T05:50:10.884Z,10.77
2022-08-30T05:52:39.385Z,11.05
2022-08-30T05:55:10.099Z,11.36
2022-08-30T05:57:40.035Z,11.84
2022-08-30T06:00:11.651Z,12.16
2022-08-30T06:02:39.216Z,12.25
2022-08-30T06:05:07.520Z,12.35
2022-08-30T06:07:35.287Z,12.41
2022-08-30T06:10:03.104Z,12.32
2022-08-30T06:12:31.895Z,12.48
2022-08-30T06:14:59.438Z,12.63
2022-08-30T06:17:27.096Z,12.91
2022-08-30T06:19:54.540Z,13.19
2022-08-30T06:22:21.987Z,13.33
2022-08-30T06:24:57.997Z,13.38
2022-08-30T06:27:25.792Z,13.55
2022-08-30T06:29:54.643Z,13.79
2022-08-30T06:32:22.464Z,13.98
2022-08-30T06:34:49.949Z,14.24
2022-08-30T06:37:24.651Z,14.68
2022-08-30T06:39:58.253Z,15.00
2022-08-30T06:42:31.543Z,15.44
2022-08-30T06:45:01.229Z,15.73
2022-08-30T06:47:29.460Z,15.90
2022-08-30T06:49:57.709Z,15.92
2022-08-30T06:52:25.300Z,15.93
2022-08-30T06:54:54.196Z,15.88
2022-08-30T06:57:21.951Z,16.10
2022-08-30T06:59:49.395Z,16.18
2022-08-30T07:02:18.198Z,16.18
2022-08-30T07:04:45.712Z,16.21
2022-08-30T07:07:13.179Z,16.36
2022-08-30T07:09:43.138Z,16.38
2022-08-30T07:12:11.163Z,16.11
2022-08-30T07:14:39.283Z,16.79
2022-08-30T07:17:31.204Z,17.16
2022-08-30T07:20:02.425Z,17.82
2022-08-30T07:22:30.112Z,18.25
2022-08-30T07:24:57.576Z,18.89
2022-08-30T07:27:25.023Z,19.25
2022-08-30T07:29:52.476Z,19.51
2022-08-30T07:32:19.967Z,19.77
2022-08-30T07:34:47.452Z,20.04
2022-08-30T07:37:20.600Z,20.07
2022-08-30T07:39:48.298Z,20.25
2022-08-30T07:42:16.109Z,20.11
2022-08-30T07:44:43.660Z,20.67
2022-08-30T07:47:11.199Z,20.85
2022-08-30T07:49:38.760Z,21.26
2022-08-30T07:52:06.296Z,21.41
2022-08-30T07:54:35.345Z,21.49
2022-08-30T07:57:02.821Z,21.23
2022-08-30T07:59:33.020Z,21.32
2022-08-30T08:02:03.635Z,21.24
2022-08-30T08:04:31.500Z,21.09
2022-08-30T08:06:58.953Z,21.14
2022-08-30T08:09:26.418Z,21.20
2022-08-30T08:11:55.304Z,21.19
2022-08-30T08:14:23.465Z,21.15
2022-08-30T08:16:50.977Z,21.47
2022-08-30T08:19:19.543Z,21.46
2022-08-30T08:21:48.634Z,21.38
2022-08-30T08:24:17.862Z,21.30
2022-08-30T08:26:45.625Z,21.35
2022-08-30T08:29:14.522Z,21.76
2022-08-30T08:31:42.552Z,21.87
2022-08-30T08:34:11.581Z,22.08
2022-08-30T08:36:39.070Z,22.19
2022-08-30T08:39:08.289Z,22.51
2022-08-30T08:41:50.908Z,22.51
2022-08-30T08:44:34.606Z,22.62
2022-08-30T08:47:12.246Z,22.66
2022-08-30T08:49:44.014Z,22.77
2022-08-30T08:52:34.992Z,22.97
2022-08-30T08:55:09.271Z,22.60
2022-08-30T08:57:37.430Z,22.50
2022-08-30T09:00:08.165Z,22.61
2022-08-30T09:02:42.522Z,22.60
2022-08-30T09:05:13.192Z,22.55
2022-08-30T09:07:44.120Z,22.48
2022-08-30T09:10:11.702Z,22.69
2022-08-30T09:12:39.184Z,22.60
2022-08-30T09:15:16.486Z,22.41
2022-08-30T09:17:54.493Z,22.57
2022-08-30T09:20:31.357Z,22.72
2022-08-30T09:23:00.302Z,23.03
2022-08-30T09:25:29.845Z,23.32
2022-08-30T09:28:15.939Z,23.10
2022-08-30T09:31:06.785Z,23.00
2022-08-30T09:33:37.057Z,22.77
2022-08-30T09:36:14.693Z,22.85
2022-08-30T09:38:42.170Z,22.75
2022-08-30T09:41:28.582Z,22.64
2022-08-30T09:44:08.436Z,22.61
2022-08-30T09:46:44.541Z,23.01
2022-08-30T09:49:29.453Z,23.13
2022-08-30T09:52:10.249Z,23.32
2022-08-30T09:54:45.745Z,23.62
2022-08-30T09:57:21.875Z,23.70
2022-08-30T10:00:16.232Z,23.38
2022-08-30T10:02:54.291Z,23.52
2022-08-30T10:05:26.419Z,23.42
2022-08-30T10:08:02.872Z,23.38
2022-08-30T10:10:40.836Z,23.49
2022-08-30T10:13:46.964Z,23.69
2022-08-30T10:16:28.848Z,23.91
2022-08-30T10:19:07.165Z,23.63
2022-08-30T10:21:40.913Z,23.41
2022-08-30T10:24:12.277Z,23.38
2022-08-30T10:26:44.955Z,23.68
2022-08-30T10:29:17.641Z,23.74
2022-08-30T10:31:50.957Z,23.84
2022-08-30T10:34:25.706Z,24.10
2022-08-30T10:36:58.882Z,24.08
2022-08-30T10:39:32.282Z,24.31
2022-08-30T10:42:06.234Z,23.91
2022-08-30T10:44:41.199Z,23.86
2022-08-30T10:50:15.040Z,24.39
2022-08-30T10:52:48.352Z,24.16
2022-08-30T10:55:21.814Z,23.79
2022-08-30T10:57:49.742Z,23.82
2022-08-30T11:00:25.174Z,23.94
2022-08-30T11:03:33.008Z,24.08
2022-08-30T11:06:10.010Z,23.89
2022-08-30T11:08:54.409Z,24.18
2022-08-30T11:11:31.480Z,23.96
2022-08-30T11:14:05.678Z,24.18
2022-08-30T11:16:39.783Z,24.51
2022-08-30T11:19:18.959Z,24.61
2022-08-30T11:21:51.492Z,24.86
2022-08-30T11:24:21.809Z,24.71
2022-08-30T11:27:03.013Z,25.02
2022-08-30T11:29:42.289Z,25.03
2022-08-30T11:33:00.716Z,25.34
2022-08-30T11:35:47.345Z,25.32
2022-08-30T11:38:40.947Z,24.93
2022-08-30T11:41:11.940Z,24.73
2022-08-30T11:43:57.111Z,24.12
2022-08-30T11:46:40.104Z,24.35
2022-08-30T11:49:37.336Z,24.24
2022-08-30T11:52:28.107Z,24.59
2022-08-30T11:55:12.687Z,24.72
2022-08-30T11:57:50.004Z,24.76
2022-08-30T12:00:29.677Z,24.86
2022-08-30T12:03:01.460Z,25.12
2022-08-30T12:06:01.274Z,25.18
2022-08-30T12:08:55.176Z,25.13
2022-08-30T12:11:56.016Z,24.86
2022-08-30T12:14:36.251Z,25.56
2022-08-30T12:17:29.312Z,25.53
2022-08-30T12:19:57.633Z,25.31
2022-08-30T12:22:26.943Z,25.44
2022-08-30T12:24:56.135Z,25.38
2022-08-30T12:29:54.674Z,25.38
2022-08-30T12:32:22.504Z,25.42
2022-08-30T12:34:52.929Z,24.85
2022-08-30T12:37:24.134Z,25.12
2022-08-30T12:40:04.949Z,24.95
2022-08-30T12:42:37.213Z,24.85
2022-08-30T12:45:12.855Z,24.90
2022-08-30T12:47:51.012Z,24.90
2022-08-30T12:50:22.123Z,24.71
2022-08-30T12:52:57.955Z,24.40
2022-08-30T12:55:30.609Z,24.33
2022-08-30T12:58:01.743Z,24.57
2022-08-30T13:00:32.144Z,24.75
2022-08-30T13:03:03.588Z,24.74
2022-08-30T13:05:48.230Z,24.68
2022-08-30T13:08:20.069Z,24.83
2022-08-30T13:11:03.293Z,24.78
2022-08-30T13:13:39.282Z,25.06
2022-08-30T13:16:24.739Z,24.76
2022-08-30T13:18:55.614Z,24.84
2022-08-30T13:21:26.734Z,24.81
2022-08-30T13:23:58.900Z,24.74
2022-08-30T13:26:30.934Z,25.02
2022-08-30T13:29:01.649Z,24.94
2022-08-30T13:31:30.939Z,24.40
2022-08-30T13:33:59.417Z,24.64
2022-08-30T13:36:31.129Z,24.83
2022-08-30T13:39:00.651Z,24.92
2022-08-30T13:41:34.377Z,25.10
2022-08-30T13:44:13.146Z,25.13
2022-08-30T13:46:53.075Z,24.84
2022-08-30T13:52:22.584Z,25.11
2022-08-30T13:54:52.020Z,25.00
2022-08-30T14:00:14.927Z,24.98
2022-08-30T14:05:31.098Z,25.39
2022-08-30T14:08:03.215Z,25.09
2022-08-30T14:10:45.633Z,25.35
2022-08-30T14:13:15.931Z,24.95
2022-08-30T14:15:43.368Z,24.72
2022-08-30T14:18:17.601Z,24.95
2022-08-30T14:20:45.413Z,25.11
2022-08-30T14:23:12.843Z,25.59
2022-08-30T14:25:41.031Z,26.07
2022-08-30T14:28:09.546Z,26.25
2022-08-30T14:30:39.010Z,25.96
2022-08-30T14:33:06.989Z,26.23
2022-08-30T14:35:36.584Z,26.29
2022-08-30T14:38:04.866Z,25.69
2022-08-30T14:40:33.759Z,26.31
2022-08-30T14:43:02.175Z,26.38
2022-08-30T14:45:29.646Z,26.13
2022-08-30T14:47:58.547Z,26.09
2022-08-30T14:50:27.996Z,26.29
2022-08-30T14:52:55.527Z,25.99
2022-08-30T14:55:23.034Z,26.08
2022-08-30T14:57:51.165Z,26.24
2022-08-30T15:00:19.109Z,26.34
2022-08-30T15:02:47.248Z,26.34
2022-08-30T15:05:16.119Z,26.28
2022-08-30T15:07:44.297Z,25.86
2022-08-30T15:10:14.617Z,25.97
2022-08-30T15:12:42.288Z,25.64
2022-08-30T15:15:12.167Z,25.55
2022-08-30T15:17:39.607Z,25.47
2022-08-30T15:20:10.513Z,25.69
2022-08-30T15:22:39.907Z,25.79
2022-08-30T15:25:09.518Z,25.47
2022-08-30T15:27:36.951Z,25.67
2022-08-30T15:30:05.494Z,25.95
2022-08-30T15:32:33.659Z,26.00
2022-08-30T15:35:01.354Z,25.71
2022-08-30T15:37:30.804Z,25.86
2022-08-30T15:40:00.486Z,25.71
2022-08-30T15:42:33.629Z,25.33
2022-08-30T15:45:01.216Z,25.53
2022-08-30T15:47:28.788Z,25.34
2022-08-30T15:49:57.967Z,25.67
2022-08-30T15:52:26.482Z,25.41
2022-08-30T15:54:54.872Z,25.38
2022-08-30T15:57:24.524Z,25.76
2022-08-30T15:59:54.353Z,26.30
2022-08-30T16:02:22.177Z,26.22
2022-08-30T16:04:55.774Z,25.97
2022-08-30T16:07:23.264Z,25.49
2022-08-30T16:09:50.880Z,25.92
2022-08-30T16:12:23.706Z,25.48
2022-08-30T16:14:52.854Z,25.17
2022-08-30T16:17:20.311Z,25.49
2022-08-30T16:19:47.767Z,25.73
2022-08-30T16:22:15.860Z,25.10
2022-08-30T16:24:50.086Z,25.17
2022-08-30T16:27:17.567Z,24.76
2022-08-30T16:29:45.140Z,24.92
2022-08-30T16:32:14.001Z,25.13
2022-08-30T16:34:41.485Z,25.30
2022-08-30T16:37:09.284Z,24.88
2022-08-30T16:39:36.779Z,24.62
2022-08-30T16:42:04.638Z,24.60
2022-08-30T16:44:34.755Z,24.32
2022-08-30T16:47:02.496Z,24.14
2022-08-30T16:49:31.694Z,24.02
2022-08-30T16:51:59.168Z,24.06
2022-08-30T16:54:26.726Z,23.99
2022-08-30T16:56:55.248Z,23.90
2022-08-30T16:59:23.311Z,23.83
2022-08-30T17:01:51.366Z,23.73
2022-08-30T17:04:20.571Z,23.71
2022-08-30T17:06:50.490Z,23.66
2022-08-30T17:09:18.504Z,23.70
2022-08-30T17:11:46.448Z,23.62
2022-08-30T17:14:14.475Z,23.52
2022-08-30T17:16:42.176Z,23.46
2022-08-30T17:19:11.451Z,23.49
2022-08-30T17:21:39.002Z,23.43
2022-08-30T17:24:08.040Z,23.34
2022-08-30T17:26:37.411Z,23.23
2022-08-30T17:29:05.889Z,23.11
2022-08-30T17:31:35.394Z,23.10
2022-08-30T17:34:05.676Z,23.05
2022-08-30T17:36:35.545Z,22.87
2022-08-30T17:39:10.595Z,22.78
2022-08-30T17:41:45.227Z,22.46
2022-08-30T17:44:17.553Z,22.41
2022-08-30T17:46:45.599Z,22.23
2022-08-30T17:49:13.238Z,21.95
2022-08-30T17:51:42.632Z,21.79
2022-08-30T17:54:11.821Z,21.76
2022-08-30T17:56:40.898Z,21.73
2022-08-30T17:59:09.136Z,21.68
2022-08-30T18:01:37.639Z,21.70
2022-08-30T18:04:06.608Z,21.67
2022-08-30T18:06:34.616Z,21.47
2022-08-30T18:09:02.227Z,21.47
2022-08-30T18:11:29.850Z,21.36
2022-08-30T18:13:58.755Z,21.38
2022-08-30T18:16:26.746Z,21.22
2022-08-30T18:18:57.275Z,21.16
2022-08-30T18:21:25.684Z,21.09
2022-08-30T18:23:56.029Z,20.93
2022-08-30T18:26:24.032Z,20.84
2022-08-30T18:28:52.204Z,20.82
2022-08-30T18:31:21.120Z,20.85
2022-08-30T18:33:48.787Z,20.74
2022-08-30T18:36:16.602Z,20.58
2022-08-30T18:38:45.333Z,20.44
2022-08-30T18:41:15.088Z,20.40
2022-08-30T18:43:43.797Z,20.24
2022-08-30T18:46:15.617Z,20.26
2022-08-30T18:48:47.716Z,20.24
2022-08-30T18:51:17.966Z,20.15
2022-08-30T18:53:46.665Z,20.04
2022-08-30T18:56:16.418Z,20.02
2022-08-30T18:58:44.637Z,19.90
2022-08-30T19:01:12.874Z,19.87
2022-08-30T19:03:40.831Z,19.85
2022-08-30T19:06:12.525Z,19.90
2022-08-30T19:08:41.234Z,19.87
2022-08-30T19:11:13.384Z,19.96
2022-08-30T19:13:40.848Z,19.81
2022-08-30T19:16:12.126Z,19.62
2022-08-30T19:18:41.345Z,19.65
2022-08-30T19:21:13.463Z,19.75
2022-08-30T19:23:42.780Z,19.66
2022-08-30T19:26:10.954Z,19.53
2022-08-30T19:28:38.642Z,19.47
2022-08-30T19:31:06.629Z,19.45
2022-08-30T19:33:34.664Z,19.37
2022-08-30T19:36:02.659Z,19.30
2022-08-30T19:38:30.202Z,19.41
2022-08-30T19:41:00.286Z,19.26
2022-08-30T19:43:30.716Z,19.25
2022-08-30T19:46:00.141Z,19.23
2022-08-30T19:48:32.728Z,19.32
2022-08-30T19:51:01.288Z,19.28
2022-08-30T19:53:29.080Z,19.10
2022-08-30T19:55:56.552Z,19.03
2022-08-30T19:58:25.392Z,19.00
2022-08-30T20:00:57.827Z,19.07
2022-08-30T20:03:28.176Z,19.11
2022-08-30T20:05:55.653Z,18.94
2022-08-30T20:08:23.504Z,18.76
2022-08-30T20:10:51.565Z,18.78
2022-08-30T20:13:19.737Z,18.79
2022-08-30T20:15:56.666Z,18.69
2022-08-30T20:18:25.844Z,18.66
2022-08-30T20:20:53.395Z,18.73
2022-08-30T20:23:23.500Z,18.76
2022-08-30T20:25:52.189Z,18.67
2022-08-30T20:28:20.463Z,18.65
2022-08-30T20:30:48.043Z,18.59
2022-08-30T20:33:17.134Z,18.60
2022-08-30T20:35:49.004Z,18.66
2022-08-30T20:38:20.574Z,18.61
2022-08-30T20:40:50.265Z,18.50
2022-08-30T20:43:18.803Z,18.59
2022-08-30T20:45:47.039Z,18.59
2022-08-30T20:48:15.570Z,18.53
2022-08-30T20:50:44.629Z,18.56
2022-08-30T20:53:12.835Z,18.43
2022-08-30T20:55:42.270Z,18.45
2022-08-30T20:58:09.934Z,18.37
2022-08-30T21:00:37.991Z,18.31
2022-08-30T21:03:13.343Z,18.28
2022-08-30T21:05:55.662Z,18.23
2022-08-30T21:08:23.194Z,18.20
2022-08-30T21:10:50.753Z,18.19
2022-08-30T21:13:18.562Z,18.14
2022-08-30T21:15:51.983Z,18.22
2022-08-30T21:18:19.568Z,18.14
2022-08-30T21:20:47.155Z,18.12
2022-08-30T21:23:16.439Z,18.09
2022-08-30T21:25:44.350Z,18.01
2022-08-30T21:28:11.878Z,18.02
2022-08-30T21:30:39.471Z,17.89
2022-08-30T21:33:08.679Z,17.88
2022-08-30T21:35:55.400Z,17.92
2022-08-30T21:38:24.520Z,17.87
2022-08-30T21:40:51.980Z,17.85
2022-08-30T21:43:19.461Z,17.98
2022-08-30T21:45:47.138Z,17.97
2022-08-30T21:48:15.013Z,17.82
2022-08-30T21:50:43.589Z,17.96
2022-08-30T21:53:11.557Z,17.94
2022-08-30T21:55:44.316Z,17.90
2022-08-30T21:58:12.080Z,17.71
2022-08-30T22:00:39.611Z,17.75
2022-08-30T22:03:07.109Z,17.71
2022-08-30T22:05:34.745Z,17.67
2022-08-30T22:08:03.206Z,17.61
2022-08-30T22:10:33.261Z,17.61
2022-08-30T22:13:02.366Z,17.54
2022-08-30T22:15:31.408Z,17.58
2022-08-30T22:18:00.483Z,17.50
2022-08-30T22:20:30.619Z,17.45
2022-08-30T22:22:58.367Z,17.47
2022-08-30T22:25:26.435Z,17.50
2022-08-30T22:27:54.003Z,17.60
2022-08-30T22:30:22.873Z,17.50
2022-08-30T22:32:50.381Z,17.54
2022-08-30T22:35:20.553Z,17.52
2022-08-30T22:37:53.398Z,17.58
2022-08-30T22:40:21.752Z,17.42
2022-08-30T22:42:49.267Z,17.37
2022-08-30T22:45:16.908Z,17.31
2022-08-30T22:47:45.734Z,17.26
2022-08-30T22:50:14.182Z,17.28
2022-08-30T22:52:41.926Z,17.46
2022-08-30T22:55:10.170Z,17.38
2022-08-30T22:57:38.498Z,17.36
2022-08-30T23:00:07.523Z,17.26
2022-08-30T23:02:36.322Z,17.04
2022-08-30T23:05:06.423Z,17.04
2022-08-30T23:07:34.186Z,17.12
2022-08-30T23:10:01.722Z,17.08
2022-08-30T23:12:29.305Z,17.02
2022-08-30T23:14:56.787Z,17.09
2022-08-30T23:17:24.499Z,16.92
2022-08-30T23:19:52.005Z,16.81
2022-08-30T23:22:20.811Z,16.94
2022-08-30T23:25:05.730Z,16.95
2022-08-30T23:28:01.566Z,17.01
2022-08-30T23:30:47.315Z,16.92
2022-08-30T23:33:33.364Z,16.96
2022-08-30T23:36:25.192Z,16.94
2022-08-30T23:39:11.748Z,16.91
2022-08-30T23:41:57.039Z,16.93
2022-08-30T23:44:42.264Z,16.93
2022-08-30T23:47:27.446Z,16.92
2022-08-30T23:50:15.748Z,16.74
2022-08-30T23:53:01.063Z,16.81
2022-08-30T23:55:47.630Z,16.90
2022-08-30T23:58:33.110Z,16.85
